Time;durP1;ratioP1;P1;durP2;ratioP2;P2;SDS_P1;SDS_P2;PMS_P1;PMS_P2;Temp;Humidity;BMP_temperature;BMP_pressure;BME280_temperature;BME280_humidity;BME280_pressure;Samples;Min_cycle;Max_cycle;Signal;HPM_P1;HPM_P2
2022/07/31 00:02:17;;;;;;;13.55;7.57;;;22.30;61.80;;;;;;5114547;28;20391;-70
2022/07/31 00:04:42;;;;;;;10.63;8.18;;;22.30;61.80;;;;;;5114529;28;20032;-70
2022/07/31 00:07:08;;;;;;;12.93;7.80;;;22.20;61.90;;;;;;5115396;28;20099;-70
2022/07/31 00:09:34;;;;;;;11.50;8.73;;;22.00;62.40;;;;;;5114503;28;20044;-70
2022/07/31 00:11:59;;;;;;;9.70;7.97;;;21.90;62.80;;;;;;5097518;28;20495;-70
2022/07/31 00:14:25;;;;;;;9.43;7.75;;;21.80;63.20;;;;;;5115169;28;20039;-70
2022/07/31 00:16:50;;;;;;;9.23;7.90;;;21.90;63.50;;;;;;5114185;28;20036;-70
2022/07/31 00:19:16;;;;;;;10.13;8.07;;;22.00;63.50;;;;;;5115170;28;20103;-70
2022/07/31 00:21:42;;;;;;;12.65;8.90;;;22.00;63.10;;;;;;5114063;28;20024;-70
2022/07/31 00:24:08;;;;;;;10.80;8.98;;;22.00;62.70;;;;;;5115027;28;20058;-70
2022/07/31 00:26:33;;;;;;;13.82;9.13;;;22.00;62.60;;;;;;5114142;28;20029;-70
2022/07/31 00:28:59;;;;;;;12.80;8.85;;;22.00;62.80;;;;;;5114884;28;20039;-70
2022/07/31 00:31:24;;;;;;;12.40;8.85;;;22.00;62.60;;;;;;5114932;28;20032;-70
2022/07/31 00:33:50;;;;;;;12.93;8.77;;;22.00;63.10;;;;;;5114828;28;20028;-70
2022/07/31 00:36:16;;;;;;;12.82;8.90;;;22.00;63.40;;;;;;5114989;28;20024;-70
2022/07/31 00:38:41;;;;;;;11.02;8.15;;;21.90;63.40;;;;;;5096794;28;20024;-70
2022/07/31 00:41:07;;;;;;;10.32;8.32;;;21.90;63.70;;;;;;5113714;28;20028;-70
2022/07/31 00:43:33;;;;;;;11.57;8.50;;;21.90;63.60;;;;;;5113689;28;20054;-70
2022/07/31 00:45:58;;;;;;;10.70;8.30;;;21.90;63.40;;;;;;5114782;28;20032;-70
2022/07/31 00:48:24;;;;;;;8.85;7.57;;;21.80;63.00;;;;;;5114587;28;20032;-70
2022/07/31 00:50:50;;;;;;;8.77;7.80;;;21.80;63.00;;;;;;5114555;28;20031;-70
2022/07/31 00:53:15;;;;;;;10.00;7.60;;;21.90;62.90;;;;;;5113576;28;20036;-70
2022/07/31 00:55:41;;;;;;;8.88;7.43;;;21.90;62.90;;;;;;5114328;28;20099;-70
2022/07/31 00:58:07;;;;;;;10.30;7.70;;;21.90;62.80;;;;;;5113472;28;20032;-70
2022/07/31 01:00:32;;;;;;;10.38;7.65;;;21.90;62.60;;;;;;5113486;28;20039;-70
2022/07/31 01:02:58;;;;;;;10.18;7.80;;;22.00;62.50;;;;;;5113483;28;20020;-70
2022/07/31 01:05:24;;;;;;;10.18;8.65;;;22.00;63.60;;;;;;5113343;28;20036;-70
2022/07/31 01:07:49;;;;;;;11.40;8.00;;;22.00;62.60;;;;;;5114269;28;20024;-70
2022/07/31 01:10:34;;;;;;;12.32;8.00;;;22.00;62.40;;;;;;5096271;28;20032;-70
2022/07/31 01:13:07;;;;;;;9.23;8.10;;;21.90;62.70;;;;;;5114124;28;20084;-70
2022/07/31 01:15:35;;;;;;;12.40;8.57;;;21.90;63.30;;;;;;5114129;28;20036;-70
2022/07/31 01:18:01;;;;;;;11.98;8.95;;;21.90;63.10;;;;;;5114050;28;20035;-70
2022/07/31 01:20:28;;;;;;;11.00;9.00;;;21.90;62.60;;;;;;5112996;28;20024;-70
2022/07/31 01:23:11;;;;;;;11.93;9.02;;;21.80;63.60;;;;;;5112963;28;20020;-70
2022/07/31 01:25:48;;;;;;;10.85;8.57;;;21.90;62.80;;;;;;5112621;28;20044;-70
2022/07/31 01:28:35;;;;;;;10.98;8.55;;;21.70;63.30;;;;;;5113889;28;20027;-70
2022/07/31 01:31:13;;;;;;;12.73;8.90;;;21.70;63.80;;;;;;5113868;28;20028;-70
2022/07/31 01:33:48;;;;;;;11.77;8.95;;;21.60;64.40;;;;;;5112753;28;20035;-70
2022/07/31 01:36:19;;;;;;;11.48;9.02;;;21.60;64.50;;;;;;5113847;28;20020;-70
2022/07/31 01:38:50;;;;;;;11.52;9.07;;;21.70;64.50;;;;;;5113813;28;20027;-70
2022/07/31 01:41:19;;;;;;;10.30;8.80;;;21.70;64.50;;;;;;5112745;28;20389;-70
2022/07/31 01:43:48;;;;;;;12.90;9.85;;;21.70;64.60;;;;;;5113729;28;20030;-70
2022/07/31 01:46:17;;;;;;;14.68;9.40;;;21.70;65.30;;;;;;5113703;28;20024;-70
2022/07/31 01:48:44;;;;;;;12.80;9.20;;;21.50;64.50;;;;;;5113810;28;20023;-70
2022/07/31 01:51:12;;;;;;;11.77;9.20;;;21.60;65.00;;;;;;5112597;28;20089;-70
2022/07/31 01:53:39;;;;;;;11.90;9.73;;;21.50;64.50;;;;;;5113290;28;20035;-71
2022/07/31 01:56:06;;;;;;;12.88;9.55;;;21.40;64.50;;;;;;5113578;28;20028;-70
2022/07/31 01:58:35;;;;;;;14.85;9.65;;;21.50;64.70;;;;;;5112582;28;20046;-70
2022/07/31 02:01:03;;;;;;;17.85;11.05;;;21.50;64.80;;;;;;5112463;28;20012;-71
2022/07/31 02:03:30;;;;;;;16.73;10.45;;;21.40;64.70;;;;;;5113518;28;20035;-70
2022/07/31 02:05:56;;;;;;;11.70;9.90;;;21.30;64.90;;;;;;5113478;28;20103;-70
2022/07/31 02:08:23;;;;;;;12.20;9.65;;;21.30;65.30;;;;;;5095660;28;20044;-70
2022/07/31 02:10:51;;;;;;;13.38;9.85;;;21.10;66.00;;;;;;5112421;28;20020;-70
2022/07/31 02:13:18;;;;;;;14.00;10.02;;;21.00;66.00;;;;;;5112342;28;20012;-70
2022/07/31 02:15:45;;;;;;;14.38;10.00;;;21.00;66.30;;;;;;5113368;28;20036;-70
2022/07/31 02:18:11;;;;;;;10.75;9.55;;;21.00;66.40;;;;;;5113328;28;20031;-70
2022/07/31 02:20:40;;;;;;;13.35;9.75;;;21.00;66.40;;;;;;5113309;28;20024;-71
2022/07/31 02:23:06;;;;;;;12.48;9.95;;;21.00;66.10;;;;;;5112358;28;20024;-70
2022/07/31 02:25:35;;;;;;;12.10;9.23;;;21.10;65.90;;;;;;5113312;28;20032;-70
2022/07/31 02:28:07;;;;;;;13.63;9.85;;;21.00;65.70;;;;;;5113245;28;20032;-70
2022/07/31 02:30:34;;;;;;;12.27;9.50;;;21.10;65.60;;;;;;5113308;28;20024;-70
2022/07/31 02:33:00;;;;;;;14.63;10.98;;;21.10;65.60;;;;;;5113170;28;20320;-70
2022/07/31 02:35:26;;;;;;;12.02;10.48;;;21.10;65.90;;;;;;5095240;28;20087;-70
2022/07/31 02:37:54;;;;;;;13.38;10.30;;;21.10;65.80;;;;;;5116759;28;20028;-70
2022/07/31 02:40:23;;;;;;;12.43;10.48;;;21.10;65.60;;;;;;5116056;28;20075;-70
2022/07/31 02:42:50;;;;;;;15.52;10.63;;;21.20;65.60;;;;;;5116148;28;20035;-70
2022/07/31 02:45:17;;;;;;;17.20;11.35;;;21.20;65.50;;;;;;5117015;28;20084;-70
2022/07/31 02:47:43;;;;;;;13.60;11.00;;;21.10;65.60;;;;;;5115955;28;20052;-70
2022/07/31 02:50:09;;;;;;;14.07;10.77;;;21.00;65.80;;;;;;5116922;28;20053;-70
2022/07/31 02:52:35;;;;;;;17.10;11.85;;;20.90;66.00;;;;;;5116898;28;20016;-70
2022/07/31 02:55:02;;;;;;;15.57;11.25;;;20.90;66.30;;;;;;5116565;28;20052;-70
2022/07/31 02:57:27;;;;;;;17.23;11.70;;;20.90;66.60;;;;;;5116823;28;20043;-70
2022/07/31 02:59:53;;;;;;;17.08;11.10;;;20.90;66.60;;;;;;5116741;28;20029;-70
2022/07/31 03:02:18;;;;;;;14.55;11.32;;;21.00;66.40;;;;;;5115796;28;20050;-70
2022/07/31 03:04:44;;;;;;;14.02;10.80;;;20.90;66.20;;;;;;5115708;28;20032;-70
2022/07/31 03:07:10;;;;;;;13.40;11.13;;;21.00;66.00;;;;;;5116567;28;20028;-70
2022/07/31 03:09:36;;;;;;;16.85;11.38;;;21.00;65.90;;;;;;5098531;28;20061;-70
2022/07/31 03:12:01;;;;;;;13.98;10.35;;;21.10;65.80;;;;;;5116530;28;20050;-70
2022/07/31 03:14:29;;;;;;;16.27;10.70;;;21.10;65.60;;;;;;5116369;28;20032;-70
2022/07/31 03:16:56;;;;;;;14.93;10.60;;;21.20;65.40;;;;;;5098813;28;20020;-70
2022/07/31 03:19:22;;;;;;;18.48;11.70;;;21.20;65.30;;;;;;5116356;28;20024;-70
2022/07/31 03:21:48;;;;;;;15.23;10.90;;;21.20;65.10;;;;;;5115573;28;20026;-71
2022/07/31 03:24:16;;;;;;;14.02;10.05;;;21.20;65.10;;;;;;5116265;28;20020;-71
2022/07/31 03:26:41;;;;;;;13.57;10.40;;;21.20;64.50;;;;;;5116200;28;20032;-70
2022/07/31 03:29:07;;;;;;;13.70;10.75;;;21.10;65.20;;;;;;5116110;28;20039;-70
2022/07/31 03:31:33;;;;;;;14.60;11.07;;;21.10;65.10;;;;;;5116118;28;20088;-70
2022/07/31 03:33:59;;;;;;;13.35;10.73;;;21.10;65.00;;;;;;5116019;28;20032;-70
2022/07/31 03:36:26;;;;;;;15.65;10.90;;;21.10;64.80;;;;;;5098071;28;20038;-70
2022/07/31 03:38:52;;;;;;;15.82;11.20;;;21.10;64.80;;;;;;5115997;28;20047;-71
2022/07/31 03:41:17;;;;;;;13.63;10.00;;;21.00;64.80;;;;;;5098162;28;20070;-70
2022/07/31 03:43:45;;;;;;;13.38;10.48;;;21.10;65.10;;;;;;5115890;28;20036;-70
2022/07/31 03:46:12;;;;;;;15.43;10.38;;;21.00;65.00;;;;;;5115746;28;20046;-70
2022/07/31 03:48:38;;;;;;;14.38;10.32;;;20.90;65.20;;;;;;5115457;28;20050;-71
2022/07/31 03:51:05;;;;;;;13.45;10.68;;;20.90;65.60;;;;;;5114728;28;20479;-70
2022/07/31 03:53:31;;;;;;;12.43;9.68;;;20.70;66.10;;;;;;5114695;28;20032;-70
2022/07/31 03:55:57;;;;;;;14.23;10.30;;;20.60;66.50;;;;;;5114625;28;20040;-70
2022/07/31 03:58:24;;;;;;;30.42;11.05;;;20.60;66.70;;;;;;5114652;28;20054;-70
2022/07/31 04:00:50;;;;;;;15.93;10.73;;;20.60;66.90;;;;;;5115565;28;20042;-70
2022/07/31 04:03:16;;;;;;;15.00;10.68;;;20.50;67.00;;;;;;5115521;28;20020;-70
2022/07/31 04:05:42;;;;;;;16.70;11.00;;;20.50;67.20;;;;;;5114528;28;20025;-70
2022/07/31 04:08:08;;;;;;;14.90;10.32;;;20.40;67.30;;;;;;5115557;28;20031;-70
2022/07/31 04:10:35;;;;;;;16.20;11.30;;;20.40;67.30;;;;;;5115371;28;20031;-70
2022/07/31 04:13:05;;;;;;;16.17;11.32;;;20.40;67.20;;;;;;5115488;28;20020;-70
2022/07/31 04:15:31;;;;;;;16.98;11.40;;;20.40;67.10;;;;;;5115174;28;20471;-70
2022/07/31 04:17:57;;;;;;;13.95;10.55;;;20.40;67.10;;;;;;5115229;28;20069;-70
2022/07/31 04:20:23;;;;;;;14.45;10.63;;;20.40;67.20;;;;;;5114224;28;20025;-70
2022/07/31 04:22:48;;;;;;;14.40;11.07;;;20.40;67.10;;;;;;5115111;28;20037;-70
2022/07/31 04:25:14;;;;;;;14.05;10.73;;;20.40;67.30;;;;;;5115081;28;20530;-71
2022/07/31 04:27:41;;;;;;;17.02;11.20;;;20.40;67.20;;;;;;5114183;28;20028;-70
2022/07/31 04:30:07;;;;;;;19.38;11.68;;;20.40;67.20;;;;;;5114953;28;20035;-70
2022/07/31 04:32:34;;;;;;;15.13;10.43;;;20.40;67.20;;;;;;5113978;28;20032;-71
2022/07/31 04:35:01;;;;;;;16.70;11.10;;;20.40;67.50;;;;;;5114788;28;20038;-71
2022/07/31 04:37:27;;;;;;;16.60;10.88;;;20.30;67.80;;;;;;5097110;28;20025;-71
2022/07/31 04:39:54;;;;;;;14.15;11.00;;;20.20;67.90;;;;;;5114819;28;20016;-71
2022/07/31 04:42:19;;;;;;;12.88;10.48;;;20.20;68.00;;;;;;5114741;28;20024;-71
2022/07/31 04:44:45;;;;;;;14.10;10.80;;;20.20;68.00;;;;;;5114688;28;20021;-70
2022/07/31 04:47:12;;;;;;;15.00;10.50;;;20.20;68.00;;;;;;5080177;28;20016;-71
2022/07/31 04:49:38;;;;;;;15.85;11.10;;;20.20;68.30;;;;;;5114591;28;20048;-71
2022/07/31 04:52:04;;;;;;;13.43;10.43;;;20.30;68.30;;;;;;5114565;28;20054;-70
2022/07/31 04:54:30;;;;;;;16.02;11.23;;;20.30;68.40;;;;;;5114324;28;20036;-70
2022/07/31 04:56:55;;;;;;;13.98;10.02;;;20.30;68.40;;;;;;5113546;28;20052;-70
2022/07/31 04:59:22;;;;;;;15.38;9.98;;;20.30;68.40;;;;;;5113733;28;20024;-70
2022/07/31 05:01:48;;;;;;;15.48;10.82;;;20.30;68.40;;;;;;5114535;28;20020;-70
2022/07/31 05:04:14;;;;;;;14.20;10.13;;;20.30;68.40;;;;;;5113310;28;20016;-70
2022/07/31 05:06:43;;;;;;;18.30;10.73;;;20.30;68.40;;;;;;5096518;28;20035;-70
2022/07/31 05:09:13;;;;;;;16.35;11.57;;;20.30;68.50;;;;;;5114396;28;20020;-70
2022/07/31 05:11:39;;;;;;;19.48;11.02;;;20.30;68.60;;;;;;5114235;28;20028;-70
2022/07/31 05:14:07;;;;;;;14.43;10.60;;;20.30;68.50;;;;;;5113100;28;20091;-70
2022/07/31 05:16:33;;;;;;;13.63;10.18;;;20.30;68.60;;;;;;5114137;28;20028;-70
2022/07/31 05:19:00;;;;;;;16.58;10.80;;;20.30;68.80;;;;;;5113182;28;20043;-70
2022/07/31 05:21:26;;;;;;;14.02;10.23;;;20.30;68.90;;;;;;5114065;28;20020;-71
2022/07/31 05:23:52;;;;;;;17.20;10.70;;;20.40;69.00;;;;;;5113998;28;20020;-70
2022/07/31 05:26:19;;;;;;;17.35;10.75;;;20.40;69.10;;;;;;5113027;28;20048;-70
2022/07/31 05:28:45;;;;;;;15.70;10.88;;;20.40;69.10;;;;;;5113885;28;20055;-70
2022/07/31 05:31:11;;;;;;;15.95;10.35;;;20.30;69.40;;;;;;5113894;28;20081;-70
2022/07/31 05:33:38;;;;;;;14.38;10.88;;;20.30;69.50;;;;;;5112970;28;20036;-70
2022/07/31 05:36:04;;;;;;;16.08;10.27;;;20.30;69.50;;;;;;5113829;28;20024;-70
2022/07/31 05:38:29;;;;;;;13.57;10.18;;;20.20;69.70;;;;;;5113768;28;20032;-70
2022/07/31 05:40:55;;;;;;;20.25;10.40;;;20.20;70.00;;;;;;5112733;28;20087;-70
2022/07/31 05:43:21;;;;;;;17.25;9.93;;;20.20;70.10;;;;;;5113688;28;20024;-70
2022/07/31 05:45:46;;;;;;;12.55;9.75;;;20.10;70.60;;;;;;5113700;28;20028;-71
2022/07/31 05:48:13;;;;;;;14.52;10.02;;;20.10;71.10;;;;;;5113678;28;20028;-71
2022/07/31 05:50:43;;;;;;;15.27;9.52;;;20.10;71.00;;;;;;5112623;28;20020;-70
2022/07/31 05:53:11;;;;;;;14.23;9.88;;;20.20;71.50;;;;;;5113597;28;20016;-71
2022/07/31 05:55:38;;;;;;;12.60;9.55;;;20.10;71.70;;;;;;5113212;28;20043;-70
2022/07/31 05:58:04;;;;;;;11.38;8.55;;;20.20;71.80;;;;;;5113515;28;20083;-70
2022/07/31 06:00:30;;;;;;;13.45;9.20;;;20.20;71.90;;;;;;5112625;28;20031;-70
2022/07/31 06:02:55;;;;;;;12.98;8.80;;;20.10;72.00;;;;;;5112488;28;20035;-70
2022/07/31 06:05:21;;;;;;;11.38;8.75;;;20.10;72.40;;;;;;5112487;28;20055;-70
2022/07/31 06:07:49;;;;;;;14.82;9.75;;;20.20;72.50;;;;;;5112462;28;20036;-70
2022/07/31 06:10:15;;;;;;;15.82;9.00;;;20.20;72.50;;;;;;5114444;28;20088;-70
2022/07/31 06:12:40;;;;;;;13.10;9.07;;;20.20;73.10;;;;;;5116571;28;20036;-70
2022/07/31 06:15:06;;;;;;;11.77;8.07;;;20.20;72.90;;;;;;5117524;28;20028;-70
2022/07/31 06:17:32;;;;;;;12.88;8.32;;;20.20;72.80;;;;;;5117527;28;20020;-70
2022/07/31 06:19:58;;;;;;;12.68;8.57;;;20.20;73.00;;;;;;5117656;28;20092;-70
2022/07/31 06:22:24;;;;;;;11.68;7.80;;;20.20;73.00;;;;;;5117480;28;20062;-70
2022/07/31 06:24:49;;;;;;;11.60;7.32;;;20.20;73.20;;;;;;5099484;28;20024;-71
2022/07/31 06:27:16;;;;;;;11.20;7.35;;;20.30;73.90;;;;;;5116458;28;20032;-71
2022/07/31 06:29:41;;;;;;;11.70;7.70;;;20.30;73.00;;;;;;5117235;28;20032;-71
2022/07/31 06:32:07;;;;;;;10.90;7.00;;;20.30;73.00;;;;;;5116452;28;20032;-71
2022/07/31 06:34:33;;;;;;;11.00;7.20;;;20.30;73.60;;;;;;5117144;28;20020;-71
2022/07/31 06:36:59;;;;;;;9.07;6.40;;;20.30;73.00;;;;;;5116159;28;20185;-71
2022/07/31 06:39:25;;;;;;;10.38;6.88;;;20.40;73.20;;;;;;5116174;28;20032;-71
2022/07/31 06:41:51;;;;;;;9.70;6.45;;;20.40;73.20;;;;;;5116176;28;20035;-71
2022/07/31 06:44:18;;;;;;;12.35;6.30;;;20.50;73.30;;;;;;5116231;28;20036;-71
2022/07/31 06:46:45;;;;;;;8.00;6.18;;;20.40;74.10;;;;;;5115977;28;20028;-71
2022/07/31 06:49:11;;;;;;;8.07;6.05;;;20.50;73.90;;;;;;5116989;28;20024;-71
2022/07/31 06:51:37;;;;;;;11.00;6.25;;;20.50;73.90;;;;;;5116044;28;20024;-71
2022/07/31 06:54:05;;;;;;;10.10;6.60;;;20.50;74.00;;;;;;5116646;28;20040;-71
2022/07/31 06:56:32;;;;;;;9.25;6.05;;;20.50;74.40;;;;;;5116849;28;20020;-70
2022/07/31 06:58:58;;;;;;;9.35;5.95;;;20.50;74.70;;;;;;5116788;28;20016;-71
2022/07/31 07:01:24;;;;;;;7.97;5.30;;;20.50;74.50;;;;;;5116756;28;20020;-70
2022/07/31 07:03:50;;;;;;;6.82;5.28;;;20.50;75.50;;;;;;5116678;28;20047;-70
2022/07/31 07:06:16;;;;;;;9.45;5.47;;;20.50;75.00;;;;;;5116642;28;20028;-70
2022/07/31 07:08:42;;;;;;;10.02;6.13;;;20.50;74.90;;;;;;5116633;28;20032;-70
2022/07/31 07:11:07;;;;;;;10.95;6.35;;;20.60;74.80;;;;;;5116490;28;20028;-70
2022/07/31 07:13:33;;;;;;;9.80;6.28;;;20.60;74.70;;;;;;5115416;28;20049;-70
2022/07/31 07:15:58;;;;;;;10.65;6.50;;;20.70;74.90;;;;;;5115534;28;20028;-70
2022/07/31 07:18:24;;;;;;;8.18;5.68;;;20.60;74.80;;;;;;5116412;28;20051;-70
2022/07/31 07:20:51;;;;;;;11.50;5.93;;;20.70;74.80;;;;;;5098503;28;20016;-70
2022/07/31 07:23:18;;;;;;;10.27;5.63;;;20.70;75.00;;;;;;5114531;28;20035;-70
2022/07/31 07:25:44;;;;;;;10.20;5.50;;;20.70;74.70;;;;;;5115316;28;20062;-71
2022/07/31 07:28:09;;;;;;;8.98;5.00;;;20.70;75.00;;;;;;5115298;28;20024;-71
2022/07/31 07:30:35;;;;;;;9.45;5.00;;;20.60;74.60;;;;;;5115263;28;20028;-70
2022/07/31 07:33:01;;;;;;;8.98;5.00;;;20.70;74.80;;;;;;5081509;28;20468;-70
2022/07/31 07:35:27;;;;;;;8.82;5.07;;;20.70;75.80;;;;;;5114969;28;20030;-70
2022/07/31 07:37:53;;;;;;;7.28;4.63;;;20.70;75.00;;;;;;5115960;28;20083;-70
2022/07/31 07:40:19;;;;;;;7.90;5.07;;;20.70;75.40;;;;;;5114929;28;20039;-71
2022/07/31 07:42:45;;;;;;;10.52;5.32;;;20.70;75.40;;;;;;5115940;28;20027;-70
2022/07/31 07:45:11;;;;;;;9.63;5.32;;;20.70;76.50;;;;;;5115952;28;20020;-71
2022/07/31 07:47:38;;;;;;;10.32;5.15;;;20.80;75.60;;;;;;5115876;28;20075;-70
2022/07/31 07:50:06;;;;;;;9.55;5.25;;;20.80;75.30;;;;;;5115794;28;20057;-70
2022/07/31 07:52:32;;;;;;;11.30;6.15;;;20.70;75.40;;;;;;5115778;28;20054;-70
2022/07/31 07:54:58;;;;;;;11.07;6.45;;;20.70;75.40;;;;;;5115442;28;20044;-70
2022/07/31 07:57:23;;;;;;;12.43;6.28;;;20.70;75.40;;;;;;5114781;28;20035;-71
2022/07/31 07:59:49;;;;;;;14.80;6.70;;;20.70;75.60;;;;;;5115643;28;20031;-70
2022/07/31 08:02:15;;;;;;;12.82;6.43;;;20.70;75.10;;;;;;5115578;28;20028;-70
2022/07/31 08:04:42;;;;;;;13.30;6.10;;;20.80;75.90;;;;;;5115513;28;20029;-70
2022/07/31 08:07:08;;;;;;;10.82;6.13;;;20.80;76.30;;;;;;5115511;28;20559;-70
2022/07/31 08:09:35;;;;;;;11.52;6.32;;;20.80;75.50;;;;;;5097609;28;20101;-70
2022/07/31 08:12:02;;;;;;;12.23;6.68;;;20.80;75.50;;;;;;5114362;28;20126;-70
2022/07/31 08:14:28;;;;;;;11.40;6.80;;;20.90;75.60;;;;;;5114300;28;20028;-70
2022/07/31 08:16:55;;;;;;;17.13;6.90;;;20.90;75.60;;;;;;5115268;28;20028;-71
2022/07/31 08:19:20;;;;;;;12.13;7.00;;;21.10;76.30;;;;;;5115280;28;20048;-70
2022/07/31 08:21:46;;;;;;;11.20;6.80;;;21.20;76.10;;;;;;5115193;28;20514;-70
2022/07/31 08:24:12;;;;;;;11.10;6.85;;;21.20;76.40;;;;;;5114185;28;20032;-71
2022/07/31 08:29:23;;;;;;;10.57;6.13;;;21.20;74.80;;;;;;5115176;28;20042;-70
2022/07/31 08:31:50;;;;;;;10.80;6.32;;;21.20;75.00;;;;;;5114959;28;20081;-70
2022/07/31 08:34:16;;;;;;;10.77;6.65;;;21.20;76.30;;;;;;5113763;28;20031;-71
2022/07/31 08:36:42;;;;;;;9.18;6.13;;;21.10;75.00;;;;;;5114870;28;20028;-70
2022/07/31 08:39:08;;;;;;;10.02;6.28;;;21.10;75.40;;;;;;5114836;28;20021;-70
2022/07/31 08:41:38;;;;;;;9.98;6.00;;;21.30;75.40;;;;;;5114766;28;20047;-70
2022/07/31 08:44:07;;;;;;;11.70;5.97;;;21.30;75.00;;;;;;5114746;28;20024;-70
2022/07/31 08:46:38;;;;;;;8.88;5.93;;;21.30;74.90;;;;;;5114805;28;20016;-70
2022/07/31 08:49:06;;;;;;;10.80;5.78;;;21.40;75.20;;;;;;5114718;28;20051;-70
2022/07/31 08:51:36;;;;;;;10.27;6.15;;;21.50;75.00;;;;;;5114585;28;20049;-71
2022/07/31 08:54:06;;;;;;;9.57;6.22;;;21.50;75.80;;;;;;5113189;28;20139;-70
2022/07/31 08:56:36;;;;;;;9.18;6.05;;;21.60;75.00;;;;;;5114657;28;20016;-70
2022/07/31 08:59:03;;;;;;;9.82;6.38;;;21.60;75.20;;;;;;5114480;28;20081;-70
2022/07/31 09:01:31;;;;;;;11.05;6.18;;;21.70;75.30;;;;;;5114417;28;20046;-70
2022/07/31 09:03:58;;;;;;;12.60;5.70;;;21.80;74.70;;;;;;5114357;28;20062;-70
2022/07/31 09:06:23;;;;;;;10.05;6.00;;;21.80;74.90;;;;;;5113401;28;20028;-70
2022/07/31 09:08:49;;;;;;;11.95;6.68;;;21.90;74.30;;;;;;5114281;28;20495;-70
2022/07/31 09:11:15;;;;;;;10.30;5.70;;;21.90;74.10;;;;;;5113368;28;20048;-70
2022/07/31 09:13:55;;;;;;;10.05;6.13;;;22.00;74.70;;;;;;5113301;28;20046;-70
2022/07/31 09:16:22;;;;;;;10.02;6.22;;;22.00;74.70;;;;;;5114206;28;20031;-70
2022/07/31 09:19:04;;;;;;;10.68;6.28;;;22.10;74.20;;;;;;5114098;28;20021;-70
2022/07/31 09:21:44;;;;;;;8.63;6.25;;;22.20;73.40;;;;;;5114076;28;20028;-70
2022/07/31 09:24:12;;;;;;;9.50;5.97;;;22.20;73.80;;;;;;5114201;28;20024;-70
2022/07/31 09:26:43;;;;;;;8.40;5.65;;;22.20;73.70;;;;;;5113995;28;20081;-70
2022/07/31 09:29:11;;;;;;;9.10;5.97;;;22.00;73.30;;;;;;5112896;28;20028;-70
2022/07/31 09:31:37;;;;;;;9.02;5.90;;;22.10;74.30;;;;;;5113943;28;20020;-70
2022/07/31 09:34:03;;;;;;;9.98;5.55;;;22.00;74.00;;;;;;5112838;28;20028;-70
2022/07/31 09:36:29;;;;;;;11.95;5.80;;;22.00;74.30;;;;;;5113823;28;20024;-70
2022/07/31 09:38:55;;;;;;;9.80;5.00;;;22.00;74.30;;;;;;5112772;28;20031;-70
2022/07/31 09:41:22;;;;;;;7.88;5.05;;;22.10;74.70;;;;;;5113748;28;20031;-70
2022/07/31 09:43:59;;;;;;;8.70;5.30;;;22.10;74.10;;;;;;5112763;28;20028;-70
2022/07/31 09:46:26;;;;;;;8.73;5.30;;;22.10;74.60;;;;;;5113379;28;20063;-70
2022/07/31 09:48:54;;;;;;;7.78;5.45;;;22.10;73.70;;;;;;5113719;28;20024;-70
2022/07/31 09:51:21;;;;;;;8.65;4.90;;;22.10;73.40;;;;;;5113666;28;20075;-70
2022/07/31 09:53:51;;;;;;;11.70;5.43;;;22.10;75.20;;;;;;5112423;28;20054;-70
2022/07/31 09:56:32;;;;;;;8.32;4.90;;;22.20;74.30;;;;;;5113580;28;20044;-70
2022/07/31 09:58:58;;;;;;;7.10;5.10;;;22.20;74.20;;;;;;5112605;28;20024;-70
2022/07/31 10:01:25;;;;;;;8.40;5.18;;;22.30;73.80;;;;;;5113571;28;20097;-70
2022/07/31 10:03:52;;;;;;;7.88;5.28;;;22.30;73.80;;;;;;5112565;28;20084;-70
2022/07/31 10:06:19;;;;;;;8.75;5.57;;;22.30;73.60;;;;;;5112565;28;20058;-70
2022/07/31 10:08:45;;;;;;;9.02;5.50;;;22.40;74.40;;;;;;5113446;28;20054;-70
2022/07/31 10:11:13;;;;;;;8.05;5.35;;;22.30;74.00;;;;;;5112464;28;20110;-70
2022/07/31 10:13:44;;;;;;;7.35;5.35;;;22.30;74.70;;;;;;5113338;28;20035;-70
2022/07/31 10:16:10;;;;;;;9.73;5.30;;;22.30;75.30;;;;;;5113423;28;20020;-70
2022/07/31 10:18:39;;;;;;;8.65;5.80;;;22.50;75.60;;;;;;5113350;28;20054;-70
2022/07/31 10:21:06;;;;;;;8.98;5.90;;;22.50;75.30;;;;;;5113332;28;20016;-70
2022/07/31 10:23:34;;;;;;;8.95;5.32;;;22.70;75.50;;;;;;5112411;28;20501;-69
2022/07/31 10:26:01;;;;;;;8.68;5.32;;;22.70;74.20;;;;;;5113286;28;20070;-70
2022/07/31 10:28:30;;;;;;;9.77;6.00;;;22.70;74.40;;;;;;5113238;28;20049;-70
2022/07/31 10:30:57;;;;;;;9.90;6.10;;;22.80;74.60;;;;;;5112276;28;20028;-70
2022/07/31 10:33:25;;;;;;;9.13;5.20;;;22.90;74.30;;;;;;5113230;28;20017;-69
2022/07/31 10:36:29;;;;;;;9.18;6.10;;;22.90;73.50;;;;;;5113147;28;20020;-70
2022/07/31 10:39:12;;;;;;;7.90;5.13;;;22.90;73.50;;;;;;5100915;28;20047;-69
2022/07/31 10:41:45;;;;;;;7.45;4.97;;;22.90;72.10;;;;;;5112190;28;20016;-69
2022/07/31 10:44:17;;;;;;;7.32;4.80;;;22.90;72.20;;;;;;5112159;28;20032;-69
2022/07/31 10:46:44;;;;;;;10.13;5.10;;;22.90;72.30;;;;;;5113134;28;20031;-69
2022/07/31 10:49:10;;;;;;;9.50;5.18;;;23.00;72.80;;;;;;5113114;28;20046;-69
2022/07/31 10:51:49;;;;;;;7.90;5.38;;;23.00;72.50;;;;;;5112180;28;20032;-69
2022/07/31 10:54:14;;;;;;;8.88;5.15;;;23.10;72.20;;;;;;5112877;28;20074;-69
2022/07/31 10:56:45;;;;;;;7.25;5.43;;;23.20;72.00;;;;;;5113044;28;20024;-69
2022/07/31 10:59:11;;;;;;;8.70;5.38;;;23.20;71.80;;;;;;5116999;28;20024;-69
2022/07/31 11:01:50;;;;;;;9.15;5.70;;;23.30;72.10;;;;;;5116776;28;20020;-70
2022/07/31 11:04:27;;;;;;;7.75;5.70;;;23.40;71.70;;;;;;5116810;28;20092;-69
2022/07/31 11:06:53;;;;;;;5.82;4.45;;;23.40;70.70;;;;;;5116672;28;20032;-69
2022/07/31 11:09:23;;;;;;;6.93;4.70;;;23.50;72.20;;;;;;5115636;28;20039;-69
2022/07/31 11:11:49;;;;;;;5.88;3.83;;;23.50;70.90;;;;;;5116584;28;20028;-69
2022/07/31 11:14:14;;;;;;;7.50;4.75;;;23.60;70.90;;;;;;5115521;28;20054;-70
2022/07/31 11:16:50;;;;;;;6.40;4.43;;;23.70;70.40;;;;;;5116621;28;20028;-70
2022/07/31 11:19:16;;;;;;;7.10;4.65;;;23.70;69.80;;;;;;5098672;28;20020;-69
2022/07/31 11:21:42;;;;;;;7.97;4.32;;;23.70;70.00;;;;;;5116356;28;20065;-69
2022/07/31 11:24:25;;;;;;;7.43;4.65;;;23.70;69.50;;;;;;5116327;28;20173;-69
2022/07/31 11:26:56;;;;;;;6.30;4.38;;;23.60;68.70;;;;;;5116334;28;20088;-70
2022/07/31 11:29:33;;;;;;;6.07;4.07;;;23.50;69.40;;;;;;5116217;28;20032;-69
2022/07/31 11:32:05;;;;;;;5.95;4.15;;;23.50;69.50;;;;;;5116231;28;20111;-69
2022/07/31 11:34:49;;;;;;;6.07;3.63;;;23.40;69.70;;;;;;5116142;28;20024;-69
2022/07/31 11:37:21;;;;;;;6.75;4.03;;;23.40;69.50;;;;;;5116267;28;20026;-69
2022/07/31 11:39:48;;;;;;;6.25;4.00;;;23.40;69.60;;;;;;5115076;28;20020;-69
2022/07/31 11:42:14;;;;;;;7.20;4.47;;;23.50;69.00;;;;;;5115965;28;20016;-69
2022/07/31 11:44:40;;;;;;;5.63;3.83;;;23.50;69.40;;;;;;5114923;28;20103;-69
2022/07/31 11:47:07;;;;;;;6.82;4.20;;;23.60;69.30;;;;;;5115925;28;20052;-69
2022/07/31 11:49:35;;;;;;;4.47;3.85;;;23.70;69.40;;;;;;5098030;28;20113;-69
2022/07/31 11:52:03;;;;;;;4.22;3.47;;;23.80;70.00;;;;;;5114873;28;20032;-69
2022/07/31 11:54:29;;;;;;;7.10;3.88;;;23.90;70.20;;;;;;5114550;28;20530;-69
2022/07/31 11:56:55;;;;;;;7.00;3.92;;;23.90;68.90;;;;;;5115718;28;20046;-69
2022/07/31 11:59:31;;;;;;;4.10;3.30;;;23.90;68.20;;;;;;5115694;28;20039;-69
2022/07/31 12:02:07;;;;;;;6.38;4.00;;;23.80;67.90;;;;;;5114803;28;20024;-69
2022/07/31 12:04:37;;;;;;;6.63;3.63;;;23.80;67.50;;;;;;5115397;28;20028;-69
2022/07/31 12:07:08;;;;;;;7.35;4.07;;;23.70;68.40;;;;;;5115502;28;20024;-69
2022/07/31 12:09:35;;;;;;;6.80;3.80;;;23.70;67.90;;;;;;5115265;28;20047;-69
2022/07/31 12:12:05;;;;;;;4.78;3.70;;;23.70;68.40;;;;;;5115412;28;20483;-69
2022/07/31 12:14:33;;;;;;;6.90;4.20;;;23.70;68.10;;;;;;5115583;28;20016;-69
2022/07/31 12:17:00;;;;;;;6.18;4.28;;;23.80;68.10;;;;;;5114467;28;20111;-69
2022/07/31 12:19:27;;;;;;;7.60;4.00;;;23.80;68.00;;;;;;5115252;28;20088;-69
2022/07/31 12:21:53;;;;;;;5.63;4.03;;;23.80;68.40;;;;;;5115180;28;20020;-69
2022/07/31 12:24:19;;;;;;;5.57;4.05;;;23.80;68.40;;;;;;5114145;28;20028;-69
2022/07/31 12:26:50;;;;;;;4.90;3.83;;;23.80;68.60;;;;;;5115122;28;20024;-69
2022/07/31 12:29:17;;;;;;;5.53;4.22;;;23.90;68.60;;;;;;5115083;28;20531;-69
2022/07/31 12:31:53;;;;;;;5.68;4.45;;;24.00;69.20;;;;;;5114976;28;20036;-69
2022/07/31 12:34:37;;;;;;;5.32;4.28;;;24.10;67.70;;;;;;5115110;28;20020;-69
2022/07/31 12:37:15;;;;;;;7.55;4.82;;;24.10;67.60;;;;;;5114963;28;20024;-69
2022/07/31 12:39:51;;;;;;;5.78;4.20;;;24.00;67.70;;;;;;5114907;28;20447;-70
2022/07/31 12:42:31;;;;;;;5.72;4.05;;;24.00;67.40;;;;;;5114817;28;20016;-69
2022/07/31 12:44:59;;;;;;;4.55;3.92;;;24.00;66.60;;;;;;5114788;28;20020;-69